sensor_id;sensor_type;location;lat;lon;timestamp;pressure;altitude;pressure_sealevel;temperature;humidity
74045;BME280;62389;51.412;5.436;2023-06-05T00:00:27;102062.53;;;16.29;58.82
74045;BME280;62389;51.412;5.436;2023-06-05T00:02:53;102060.19;;;16.23;59.34
74045;BME280;62389;51.412;5.436;2023-06-05T00:05:18;102070.97;;;16.19;59.56
74045;BME280;62389;51.412;5.436;2023-06-05T00:07:44;102067.69;;;16.14;59.20
74045;BME280;62389;51.412;5.436;2023-06-05T00:10:09;102069.59;;;16.10;59.32
74045;BME280;62389;51.412;5.436;2023-06-05T00:12:36;102068.13;;;16.04;59.54
74045;BME280;62389;51.412;5.436;2023-06-05T00:15:02;102073.56;;;16.01;59.40
74045;BME280;62389;51.412;5.436;2023-06-05T00:17:28;102069.34;;;15.97;59.75
74045;BME280;62389;51.412;5.436;2023-06-05T00:19:53;102072.13;;;15.94;59.68
74045;BME280;62389;51.412;5.436;2023-06-05T00:22:19;102068.06;;;15.87;59.66
74045;BME280;62389;51.412;5.436;2023-06-05T00:24:44;102077.97;;;15.82;60.14
74045;BME280;62389;51.412;5.436;2023-06-05T00:27:10;102066.69;;;15.78;59.96
74045;BME280;62389;51.412;5.436;2023-06-05T00:29:36;102069.47;;;15.75;60.12
74045;BME280;62389;51.412;5.436;2023-06-05T00:32:01;102072.25;;;15.72;60.68
74045;BME280;62389;51.412;5.436;2023-06-05T00:34:26;102065.41;;;15.68;60.23
74045;BME280;62389;51.412;5.436;2023-06-05T00:36:52;102068.25;;;15.64;60.46
74045;BME280;62389;51.412;5.436;2023-06-05T00:39:18;102064.06;;;15.58;60.71
74045;BME280;62389;51.412;5.436;2023-06-05T00:41:44;102054.50;;;15.55;61.32
74045;BME280;62389;51.412;5.436;2023-06-05T00:44:10;102052.97;;;15.51;61.30
74045;BME280;62389;51.412;5.436;2023-06-05T00:46:36;102063.63;;;15.48;61.03
74045;BME280;62389;51.412;5.436;2023-06-05T00:49:02;102064.59;;;15.46;61.21
74045;BME280;62389;51.412;5.436;2023-06-05T00:51:27;102060.25;;;15.45;61.09
74045;BME280;62389;51.412;5.436;2023-06-05T00:53:53;102059.63;;;15.40;61.60
74045;BME280;62389;51.412;5.436;2023-06-05T00:56:18;102060.66;;;15.36;61.50
74045;BME280;62389;51.412;5.436;2023-06-05T00:58:46;102055.59;;;15.31;61.70
74045;BME280;62389;51.412;5.436;2023-06-05T01:01:12;102067.28;;;15.25;61.95
74045;BME280;62389;51.412;5.436;2023-06-05T01:03:40;102069.13;;;15.23;61.69
74045;BME280;62389;51.412;5.436;2023-06-05T01:06:05;102063.97;;;15.20;61.85
74045;BME280;62389;51.412;5.436;2023-06-05T01:08:32;102069.41;;;15.17;62.09
74045;BME280;62389;51.412;5.436;2023-06-05T01:11:05;102070.38;;;15.15;62.20
74045;BME280;62389;51.412;5.436;2023-06-05T01:13:35;102067.88;;;15.12;62.01
74045;BME280;62389;51.412;5.436;2023-06-05T01:16:05;102067.09;;;15.10;62.20
74045;BME280;62389;51.412;5.436;2023-06-05T01:18:31;102060.22;;;15.06;62.50
74045;BME280;62389;51.412;5.436;2023-06-05T01:21:00;102059.53;;;15.02;62.74
74045;BME280;62389;51.412;5.436;2023-06-05T01:23:27;102057.94;;;14.98;62.80
74045;BME280;62389;51.412;5.436;2023-06-05T01:25:57;102061.72;;;14.91;62.61
74045;BME280;62389;51.412;5.436;2023-06-05T01:28:29;102062.84;;;14.85;63.15
74045;BME280;62389;51.412;5.436;2023-06-05T01:33:31;102054.28;;;14.80;63.00
74045;BME280;62389;51.412;5.436;2023-06-05T01:36:08;102060.56;;;14.77;63.25
74045;BME280;62389;51.412;5.436;2023-06-05T01:38:33;102058.59;;;14.83;61.06
74045;BME280;62389;51.412;5.436;2023-06-05T01:41:00;102055.41;;;14.74;63.19
74045;BME280;62389;51.412;5.436;2023-06-05T01:43:27;102052.97;;;14.70;63.58
74045;BME280;62389;51.412;5.436;2023-06-05T01:45:54;102047.84;;;14.67;63.68
74045;BME280;62389;51.412;5.436;2023-06-05T01:48:22;102049.84;;;14.60;63.96
74045;BME280;62389;51.412;5.436;2023-06-05T01:50:49;102052.63;;;14.57;63.94
74045;BME280;62389;51.412;5.436;2023-06-05T01:53:14;102047.47;;;14.54;64.17
74045;BME280;62389;51.412;5.436;2023-06-05T01:55:42;102046.72;;;14.50;64.25
74045;BME280;62389;51.412;5.436;2023-06-05T01:58:07;102040.72;;;14.47;64.57
74045;BME280;62389;51.412;5.436;2023-06-05T02:00:32;102040.00;;;14.43;64.45
74045;BME280;62389;51.412;5.436;2023-06-05T02:03:00;102037.47;;;14.40;64.82
74045;BME280;62389;51.412;5.436;2023-06-05T02:05:25;102035.91;;;14.36;64.52
74045;BME280;62389;51.412;5.436;2023-06-05T02:07:54;102038.66;;;14.33;64.83
74045;BME280;62389;51.412;5.436;2023-06-05T02:10:23;102037.06;;;14.29;64.98
74045;BME280;62389;51.412;5.436;2023-06-05T02:12:49;102038.91;;;14.27;65.29
74045;BME280;62389;51.412;5.436;2023-06-05T02:15:14;102035.44;;;14.25;65.18
74045;BME280;62389;51.412;5.436;2023-06-05T02:17:41;102036.53;;;14.21;65.33
74045;BME280;62389;51.412;5.436;2023-06-05T02:20:11;102034.84;;;14.18;65.49
74045;BME280;62389;51.412;5.436;2023-06-05T02:22:38;102041.09;;;14.16;65.71
74045;BME280;62389;51.412;5.436;2023-06-05T02:25:03;102029.91;;;14.11;65.80
74045;BME280;62389;51.412;5.436;2023-06-05T02:27:30;102035.28;;;14.08;65.59
74045;BME280;62389;51.412;5.436;2023-06-05T02:29:56;102034.50;;;14.06;65.91
74045;BME280;62389;51.412;5.436;2023-06-05T02:32:21;102031.06;;;14.04;65.88
74045;BME280;62389;51.412;5.436;2023-06-05T02:34:51;102026.78;;;14.01;66.09
74045;BME280;62389;51.412;5.436;2023-06-05T02:37:16;102018.16;;;13.97;66.15
74045;BME280;62389;51.412;5.436;2023-06-05T02:39:42;102026.13;;;13.94;66.37
74045;BME280;62389;51.412;5.436;2023-06-05T02:42:07;102016.66;;;13.90;66.48
74045;BME280;62389;51.412;5.436;2023-06-05T02:44:33;102015.88;;;13.88;66.85
74045;BME280;62389;51.412;5.436;2023-06-05T02:46:58;102015.97;;;13.85;66.92
74045;BME280;62389;51.412;5.436;2023-06-05T02:49:24;102017.81;;;13.83;66.50
74045;BME280;62389;51.412;5.436;2023-06-05T02:51:49;102012.66;;;13.80;67.01
74045;BME280;62389;51.412;5.436;2023-06-05T02:54:15;102014.50;;;13.78;67.14
74045;BME280;62389;51.412;5.436;2023-06-05T02:56:40;102009.34;;;13.75;66.93
74045;BME280;62389;51.412;5.436;2023-06-05T02:59:05;102017.38;;;13.72;67.35
74045;BME280;62389;51.412;5.436;2023-06-05T03:01:33;102009.72;;;13.66;67.62
74045;BME280;62389;51.412;5.436;2023-06-05T03:04:00;102014.16;;;13.64;67.47
74045;BME280;62389;51.412;5.436;2023-06-05T03:06:28;102013.38;;;13.62;67.45
74045;BME280;62389;51.412;5.436;2023-06-05T03:08:59;102015.19;;;13.60;67.72
74045;BME280;62389;51.412;5.436;2023-06-05T03:11:24;102013.56;;;13.57;67.34
74045;BME280;62389;51.412;5.436;2023-06-05T03:13:51;102017.13;;;13.55;67.93
74045;BME280;62389;51.412;5.436;2023-06-05T03:16:17;102013.72;;;13.53;67.49
74045;BME280;62389;51.412;5.436;2023-06-05T03:18:43;102005.94;;;13.50;67.94
74045;BME280;62389;51.412;5.436;2023-06-05T03:21:09;102003.44;;;13.46;67.89
74045;BME280;62389;51.412;5.436;2023-06-05T03:23:35;101999.22;;;13.42;68.17
74045;BME280;62389;51.412;5.436;2023-06-05T03:26:01;102008.03;;;13.40;68.16
74045;BME280;62389;51.412;5.436;2023-06-05T03:28:28;102009.88;;;13.38;68.54
74045;BME280;62389;51.412;5.436;2023-06-05T03:30:54;102009.72;;;13.42;65.52
74045;BME280;62389;51.412;5.436;2023-06-05T03:33:19;102007.31;;;13.36;68.57
74045;BME280;62389;51.412;5.436;2023-06-05T03:35:45;102002.16;;;13.33;68.75
74045;BME280;62389;51.412;5.436;2023-06-05T03:38:14;102004.03;;;13.30;68.82
74045;BME280;62389;51.412;5.436;2023-06-05T03:40:39;101997.22;;;13.26;68.62
74045;BME280;62389;51.412;5.436;2023-06-05T03:43:06;102005.97;;;13.25;68.72
74045;BME280;62389;51.412;5.436;2023-06-05T03:45:35;102002.50;;;13.24;68.81
74045;BME280;62389;51.412;5.436;2023-06-05T03:48:00;102001.75;;;13.20;68.97
74045;BME280;62389;51.412;5.436;2023-06-05T03:50:27;101998.22;;;13.20;68.99
74045;BME280;62389;51.412;5.436;2023-06-05T03:52:56;102003.56;;;13.18;69.04
74045;BME280;62389;51.412;5.436;2023-06-05T03:55:29;102000.16;;;13.15;69.39
74045;BME280;62389;51.412;5.436;2023-06-05T03:58:05;102005.47;;;13.13;69.06
74045;BME280;62389;51.412;5.436;2023-06-05T04:00:33;102004.63;;;13.13;69.68
74045;BME280;62389;51.412;5.436;2023-06-05T04:02:58;101998.53;;;13.12;69.49
74045;BME280;62389;51.412;5.436;2023-06-05T04:05:24;102006.47;;;13.11;69.59
74045;BME280;62389;51.412;5.436;2023-06-05T04:07:50;102001.22;;;13.11;69.50
74045;BME280;62389;51.412;5.436;2023-06-05T04:10:15;102005.66;;;13.09;69.67
74045;BME280;62389;51.412;5.436;2023-06-05T04:12:40;102010.91;;;13.09;69.85
74045;BME280;62389;51.412;5.436;2023-06-05T04:15:07;102010.97;;;13.07;69.75
74045;BME280;62389;51.412;5.436;2023-06-05T04:17:34;102010.97;;;13.07;69.51
74045;BME280;62389;51.412;5.436;2023-06-05T04:19:59;102011.88;;;13.06;69.90
74045;BME280;62389;51.412;5.436;2023-06-05T04:22:25;102014.50;;;13.06;69.94
74045;BME280;62389;51.412;5.436;2023-06-05T04:24:50;102013.66;;;13.06;70.14
74045;BME280;62389;51.412;5.436;2023-06-05T04:27:16;102015.47;;;13.04;70.15
74045;BME280;62389;51.412;5.436;2023-06-05T04:29:42;102025.09;;;13.03;69.75
74045;BME280;62389;51.412;5.436;2023-06-05T04:32:09;102012.03;;;13.02;70.45
74045;BME280;62389;51.412;5.436;2023-06-05T04:34:35;102012.97;;;13.01;70.26
74045;BME280;62389;51.412;5.436;2023-06-05T04:37:00;102013.84;;;13.00;69.93
74045;BME280;62389;51.412;5.436;2023-06-05T04:39:26;102022.63;;;12.99;70.04
74045;BME280;62389;51.412;5.436;2023-06-05T04:41:52;102019.06;;;13.01;70.16
74045;BME280;62389;51.412;5.436;2023-06-05T04:44:17;102023.47;;;13.01;70.18
74045;BME280;62389;51.412;5.436;2023-06-05T04:46:43;102021.69;;;13.01;70.26
74045;BME280;62389;51.412;5.436;2023-06-05T04:49:13;102024.25;;;13.03;69.87
74045;BME280;62389;51.412;5.436;2023-06-05T04:51:39;102032.06;;;13.04;70.15
74045;BME280;62389;51.412;5.436;2023-06-05T04:54:04;102026.81;;;13.04;69.62
74045;BME280;62389;51.412;5.436;2023-06-05T04:56:31;102027.63;;;13.06;70.05
74045;BME280;62389;51.412;5.436;2023-06-05T04:58:58;102024.16;;;13.06;70.10
74045;BME280;62389;51.412;5.436;2023-06-05T05:01:24;102024.16;;;13.06;69.85
74045;BME280;62389;51.412;5.436;2023-06-05T05:03:50;102021.53;;;13.06;69.75
74045;BME280;62389;51.412;5.436;2023-06-05T05:06:16;102022.38;;;13.06;70.28
74045;BME280;62389;51.412;5.436;2023-06-05T05:08:42;102020.63;;;13.07;69.93
74045;BME280;62389;51.412;5.436;2023-06-05T05:11:10;102026.78;;;13.06;70.06
74045;BME280;62389;51.412;5.436;2023-06-05T05:13:36;102026.72;;;13.07;70.22
74045;BME280;62389;51.412;5.436;2023-06-05T05:16:01;102021.47;;;13.07;69.93
74045;BME280;62389;51.412;5.436;2023-06-05T05:18:27;102019.69;;;13.08;70.24
74045;BME280;62389;51.412;5.436;2023-06-05T05:20:53;102018.75;;;13.10;70.05
74045;BME280;62389;51.412;5.436;2023-06-05T05:23:18;102016.97;;;13.11;69.77
74045;BME280;62389;51.412;5.436;2023-06-05T05:25:46;102020.38;;;13.13;69.77
74045;BME280;62389;51.412;5.436;2023-06-05T05:28:11;102015.13;;;13.13;70.23
74045;BME280;62389;51.412;5.436;2023-06-05T05:30:37;102015.19;;;13.11;69.97
74045;BME280;62389;51.412;5.436;2023-06-05T05:33:02;102011.72;;;13.11;69.88
74045;BME280;62389;51.412;5.436;2023-06-05T05:35:28;102017.81;;;13.11;69.97
74045;BME280;62389;51.412;5.436;2023-06-05T05:37:53;102017.84;;;13.10;70.16
74045;BME280;62389;51.412;5.436;2023-06-05T05:40:18;102020.50;;;13.10;70.32
74045;BME280;62389;51.412;5.436;2023-06-05T05:42:44;102015.22;;;13.10;70.60
74045;BME280;62389;51.412;5.436;2023-06-05T05:45:09;102021.31;;;13.12;70.13
74045;BME280;62389;51.412;5.436;2023-06-05T05:47:35;102012.44;;;13.14;70.19
74045;BME280;62389;51.412;5.436;2023-06-05T05:50:00;102017.66;;;13.16;69.90
74045;BME280;62389;51.412;5.436;2023-06-05T05:52:25;102022.78;;;13.19;70.04
74045;BME280;62389;51.412;5.436;2023-06-05T05:54:51;102016.63;;;13.21;69.67
74045;BME280;62389;51.412;5.436;2023-06-05T05:57:17;102023.53;;;13.24;69.88
74045;BME280;62389;51.412;5.436;2023-06-05T05:59:43;102018.16;;;13.27;70.47
74045;BME280;62389;51.412;5.436;2023-06-05T06:02:10;102023.34;;;13.29;69.74
74045;BME280;62389;51.412;5.436;2023-06-05T06:04:37;102029.44;;;13.31;70.25
74045;BME280;62389;51.412;5.436;2023-06-05T06:07:02;102038.09;;;13.33;69.96
74045;BME280;62389;51.412;5.436;2023-06-05T06:09:29;102035.41;;;13.34;69.84
74045;BME280;62389;51.412;5.436;2023-06-05T06:11:54;102044.13;;;13.36;69.65
74045;BME280;62389;51.412;5.436;2023-06-05T06:14:23;102039.66;;;13.38;69.89
74045;BME280;62389;51.412;5.436;2023-06-05T06:16:49;102034.28;;;13.41;68.77
74045;BME280;62389;51.412;5.436;2023-06-05T06:19:19;102035.94;;;13.44;69.37
74045;BME280;62389;51.412;5.436;2023-06-05T06:21:48;102041.09;;;13.47;69.90
74045;BME280;62389;51.412;5.436;2023-06-05T06:24:13;102037.47;;;13.50;69.14
74045;BME280;62389;51.412;5.436;2023-06-05T06:26:40;102040.00;;;13.53;69.20
74045;BME280;62389;51.412;5.436;2023-06-05T06:29:07;102042.53;;;13.56;68.75
74045;BME280;62389;51.412;5.436;2023-06-05T06:31:33;102041.63;;;13.57;68.36
74045;BME280;62389;51.412;5.436;2023-06-05T06:33:59;102042.41;;;13.59;68.19
74045;BME280;62389;51.412;5.436;2023-06-05T06:36:25;102036.13;;;13.63;69.43
74045;BME280;62389;51.412;5.436;2023-06-05T06:38:51;102038.59;;;13.67;69.47
74045;BME280;62389;51.412;5.436;2023-06-05T06:41:16;102035.84;;;13.70;69.35
74045;BME280;62389;51.412;5.436;2023-06-05T06:43:42;102041.78;;;13.76;69.62
74045;BME280;62389;51.412;5.436;2023-06-05T06:46:07;102046.06;;;13.78;68.63
74045;BME280;62389;51.412;5.436;2023-06-05T06:48:33;102041.56;;;13.82;69.17
74045;BME280;62389;51.412;5.436;2023-06-05T06:50:59;102039.63;;;13.85;68.86
74045;BME280;62389;51.412;5.436;2023-06-05T06:53:25;102047.44;;;13.88;68.15
74045;BME280;62389;51.412;5.436;2023-06-05T06:55:50;102039.44;;;13.91;68.55
74045;BME280;62389;51.412;5.436;2023-06-05T06:58:15;102042.78;;;13.95;69.50
74045;BME280;62389;51.412;5.436;2023-06-05T07:00:41;102045.31;;;13.98;68.79
74045;BME280;62389;51.412;5.436;2023-06-05T07:03:07;102050.38;;;14.03;69.25
74045;BME280;62389;51.412;5.436;2023-06-05T07:05:33;102056.44;;;14.05;69.11
74045;BME280;62389;51.412;5.436;2023-06-05T07:07:59;102056.25;;;14.09;68.80
74045;BME280;62389;51.412;5.436;2023-06-05T07:10:28;102063.97;;;14.14;68.63
74045;BME280;62389;51.412;5.436;2023-06-05T07:12:53;102069.00;;;14.20;69.35
74045;BME280;62389;51.412;5.436;2023-06-05T07:15:19;102078.41;;;14.25;69.93
74045;BME280;62389;51.412;5.436;2023-06-05T07:17:45;102067.66;;;14.32;68.58
74045;BME280;62389;51.412;5.436;2023-06-05T07:20:10;102063.78;;;14.40;68.73
74045;BME280;62389;51.412;5.436;2023-06-05T07:22:36;102062.41;;;14.54;68.58
74045;BME280;62389;51.412;5.436;2023-06-05T07:25:01;102065.47;;;14.65;66.98
74045;BME280;62389;51.412;5.436;2023-06-05T07:27:27;102063.25;;;14.76;67.89
74045;BME280;62389;51.412;5.436;2023-06-05T07:29:53;102057.72;;;14.82;66.88
74045;BME280;62389;51.412;5.436;2023-06-05T07:32:19;102060.19;;;14.87;67.11
74045;BME280;62389;51.412;5.436;2023-06-05T07:34:46;102064.44;;;14.89;66.86
74045;BME280;62389;51.412;5.436;2023-06-05T07:37:11;102064.31;;;14.92;66.39
74045;BME280;62389;51.412;5.436;2023-06-05T07:39:37;102062.63;;;14.91;65.80
74045;BME280;62389;51.412;5.436;2023-06-05T07:42:02;102063.47;;;14.92;66.21
74045;BME280;62389;51.412;5.436;2023-06-05T07:44:28;102069.59;;;14.92;65.60
74045;BME280;62389;51.412;5.436;2023-06-05T07:46:53;102070.38;;;14.94;66.26
74045;BME280;62389;51.412;5.436;2023-06-05T07:49:19;102069.41;;;14.97;65.45
74045;BME280;62389;51.412;5.436;2023-06-05T07:51:45;102066.69;;;14.98;64.52
74045;BME280;62389;51.412;5.436;2023-06-05T07:54:13;102064.84;;;15.00;65.55
74045;BME280;62389;51.412;5.436;2023-06-05T07:56:40;102066.41;;;15.05;65.31
74045;BME280;62389;51.412;5.436;2023-06-05T07:59:07;102063.59;;;15.09;65.64
74045;BME280;62389;51.412;5.436;2023-06-05T08:01:33;102057.28;;;15.13;65.53
74045;BME280;62389;51.412;5.436;2023-06-05T08:04:03;102051.81;;;15.18;64.69
74045;BME280;62389;51.412;5.436;2023-06-05T08:06:29;102063.84;;;15.23;65.84
74045;BME280;62389;51.412;5.436;2023-06-05T08:08:55;102058.38;;;15.28;65.32
74045;BME280;62389;51.412;5.436;2023-06-05T08:11:20;102052.84;;;15.34;64.36
74045;BME280;62389;51.412;5.436;2023-06-05T08:13:46;102049.16;;;15.38;64.29
74045;BME280;62389;51.412;5.436;2023-06-05T08:16:11;102047.94;;;15.45;65.12
74045;BME280;62389;51.412;5.436;2023-06-05T08:18:37;102050.25;;;15.53;65.51
74045;BME280;62389;51.412;5.436;2023-06-05T08:21:02;102048.97;;;15.62;65.08
74045;BME280;62389;51.412;5.436;2023-06-05T08:23:28;102038.00;;;15.71;65.54
74045;BME280;62389;51.412;5.436;2023-06-05T08:25:54;102044.56;;;15.81;65.67
74045;BME280;62389;51.412;5.436;2023-06-05T08:28:20;102036.22;;;15.90;63.93
74045;BME280;62389;51.412;5.436;2023-06-05T08:30:45;102042.78;;;16.00;64.63
74045;BME280;62389;51.412;5.436;2023-06-05T08:33:11;102036.31;;;16.08;62.87
74045;BME280;62389;51.412;5.436;2023-06-05T08:35:40;102030.81;;;16.12;63.00
74045;BME280;62389;51.412;5.436;2023-06-05T08:38:05;102027.03;;;16.18;62.97
74045;BME280;62389;51.412;5.436;2023-06-05T08:40:32;102027.44;;;16.27;64.34
74045;BME280;62389;51.412;5.436;2023-06-05T08:42:59;102029.69;;;16.35;63.75
74045;BME280;62389;51.412;5.436;2023-06-05T08:45:25;102024.81;;;16.45;63.80
74045;BME280;62389;51.412;5.436;2023-06-05T08:47:51;102030.50;;;16.54;63.31
74045;BME280;62389;51.412;5.436;2023-06-05T08:50:17;102025.69;;;16.63;61.86
74045;BME280;62389;51.412;5.436;2023-06-05T08:52:43;102023.31;;;16.75;62.57
74045;BME280;62389;51.412;5.436;2023-06-05T08:55:11;102025.25;;;16.89;63.44
74045;BME280;62389;51.412;5.436;2023-06-05T08:57:41;102028.03;;;17.03;62.18
74045;BME280;62389;51.412;5.436;2023-06-05T09:00:08;102025.69;;;17.15;60.40
74045;BME280;62389;51.412;5.436;2023-06-05T09:02:39;102029.41;;;17.28;61.45
74045;BME280;62389;51.412;5.436;2023-06-05T09:05:05;102012.38;;;17.49;61.62
74045;BME280;62389;51.412;5.436;2023-06-05T09:07:32;102022.34;;;17.93;61.13
74045;BME280;62389;51.412;5.436;2023-06-05T09:09:58;102015.81;;;18.76;56.35
74045;BME280;62389;51.412;5.436;2023-06-05T09:12:23;102015.56;;;19.81;54.86
74045;BME280;62389;51.412;5.436;2023-06-05T09:14:51;102014.03;;;20.85;52.43
74045;BME280;62389;51.412;5.436;2023-06-05T09:17:17;102004.75;;;21.91;49.29
74045;BME280;62389;51.412;5.436;2023-06-05T09:19:43;102011.16;;;23.07;46.85
74045;BME280;62389;51.412;5.436;2023-06-05T09:22:10;101999.03;;;24.13;43.85
74045;BME280;62389;51.412;5.436;2023-06-05T09:24:39;101996.69;;;25.15;43.09
74045;BME280;62389;51.412;5.436;2023-06-05T09:27:09;101992.53;;;25.72;46.00
74045;BME280;62389;51.412;5.436;2023-06-05T09:29:37;102000.97;;;26.56;37.98
74045;BME280;62389;51.412;5.436;2023-06-05T09:32:05;101998.50;;;26.92;36.89
74045;BME280;62389;51.412;5.436;2023-06-05T09:34:38;101999.59;;;26.99;35.06
74045;BME280;62389;51.412;5.436;2023-06-05T09:37:08;102004.25;;;26.97;35.97
74045;BME280;62389;51.412;5.436;2023-06-05T09:39:37;102005.22;;;26.96;35.64
74045;BME280;62389;51.412;5.436;2023-06-05T09:42:03;101999.88;;;26.96;36.09
74045;BME280;62389;51.412;5.436;2023-06-05T09:44:29;102006.41;;;26.83;36.50
74045;BME280;62389;51.412;5.436;2023-06-05T09:47:08;102004.91;;;26.52;36.51
74045;BME280;62389;51.412;5.436;2023-06-05T09:52:08;102003.78;;;25.56;37.81
74045;BME280;62389;51.412;5.436;2023-06-05T09:54:36;102004.41;;;25.08;39.04
74045;BME280;62389;51.412;5.436;2023-06-05T09:57:04;102001.00;;;24.64;38.28
74045;BME280;62389;51.412;5.436;2023-06-05T09:59:32;101998.03;;;24.25;42.06
74045;BME280;62389;51.412;5.436;2023-06-05T10:02:03;101998.63;;;23.97;41.46
74045;BME280;62389;51.412;5.436;2023-06-05T10:04:41;101997.31;;;23.58;41.75
74045;BME280;62389;51.412;5.436;2023-06-05T10:07:07;101990.19;;;23.36;43.28
74045;BME280;62389;51.412;5.436;2023-06-05T10:09:33;101987.75;;;23.21;43.06
74045;BME280;62389;51.412;5.436;2023-06-05T10:12:01;101991.50;;;23.08;43.31
74045;BME280;62389;51.412;5.436;2023-06-05T10:14:28;101987.75;;;22.99;44.07
74045;BME280;62389;51.412;5.436;2023-06-05T10:16:55;101982.16;;;23.02;45.09
74045;BME280;62389;51.412;5.436;2023-06-05T10:19:21;101987.28;;;23.27;44.55
74045;BME280;62389;51.412;5.436;2023-06-05T10:21:48;101981.22;;;23.37;41.70
74045;BME280;62389;51.412;5.436;2023-06-05T10:24:18;101984.25;;;23.32;42.65
74045;BME280;62389;51.412;5.436;2023-06-05T10:29:43;101976.69;;;22.92;44.75
74045;BME280;62389;51.412;5.436;2023-06-05T10:35:21;101981.94;;;22.59;46.54
74045;BME280;62389;51.412;5.436;2023-06-05T10:40:29;101985.38;;;22.37;46.33
74045;BME280;62389;51.412;5.436;2023-06-05T10:43:28;101987.34;;;22.35;47.10
74045;BME280;62389;51.412;5.436;2023-06-05T10:45:55;101989.50;;;22.30;46.42
74045;BME280;62389;51.412;5.436;2023-06-05T10:48:21;101986.06;;;22.28;46.68
74045;BME280;62389;51.412;5.436;2023-06-05T10:51:31;101981.34;;;22.20;46.58
74045;BME280;62389;51.412;5.436;2023-06-05T10:53:57;101986.75;;;22.18;46.73
74045;BME280;62389;51.412;5.436;2023-06-05T10:59:16;101965.69;;;22.15;46.38
74045;BME280;62389;51.412;5.436;2023-06-05T11:01:42;101960.09;;;22.18;49.02
74045;BME280;62389;51.412;5.436;2023-06-05T11:04:08;101970.56;;;22.21;46.85
74045;BME280;62389;51.412;5.436;2023-06-05T11:06:34;101970.78;;;22.18;44.36
74045;BME280;62389;51.412;5.436;2023-06-05T11:09:14;101967.38;;;22.16;45.63
74045;BME280;62389;51.412;5.436;2023-06-05T11:11:59;101951.41;;;22.16;47.67
74045;BME280;62389;51.412;5.436;2023-06-05T11:14:43;101961.94;;;22.18;46.75
74045;BME280;62389;51.412;5.436;2023-06-05T11:17:31;101961.84;;;22.19;47.12
74045;BME280;62389;51.412;5.436;2023-06-05T11:19:58;101956.50;;;22.19;46.21
74045;BME280;62389;51.412;5.436;2023-06-05T11:22:23;101956.25;;;22.22;46.68
74045;BME280;62389;51.412;5.436;2023-06-05T11:27:45;101950.72;;;22.26;46.39
74045;BME280;62389;51.412;5.436;2023-06-05T11:30:18;101948.28;;;22.34;47.11
74045;BME280;62389;51.412;5.436;2023-06-05T11:32:44;101938.63;;;22.44;48.28
74045;BME280;62389;51.412;5.436;2023-06-05T11:35:10;101947.75;;;22.53;46.48
74045;BME280;62389;51.412;5.436;2023-06-05T11:37:36;101937.72;;;22.56;45.49
74045;BME280;62389;51.412;5.436;2023-06-05T11:40:03;101930.44;;;22.58;46.89
74045;BME280;62389;51.412;5.436;2023-06-05T11:42:38;101926.34;;;22.65;42.74
74045;BME280;62389;51.412;5.436;2023-06-05T11:45:14;101923.31;;;22.70;45.91
74045;BME280;62389;51.412;5.436;2023-06-05T11:47:40;101934.34;;;22.77;48.17
74045;BME280;62389;51.412;5.436;2023-06-05T11:50:13;101922.47;;;22.81;45.68
74045;BME280;62389;51.412;5.436;2023-06-05T11:52:39;101926.34;;;22.88;44.64
74045;BME280;62389;51.412;5.436;2023-06-05T11:55:18;101925.31;;;22.90;47.06
74045;BME280;62389;51.412;5.436;2023-06-05T11:57:48;101921.16;;;22.97;44.25
74045;BME280;62389;51.412;5.436;2023-06-05T12:00:15;101923.69;;;22.99;44.79
74045;BME280;62389;51.412;5.436;2023-06-05T12:02:42;101923.47;;;23.02;43.06
74045;BME280;62389;51.412;5.436;2023-06-05T12:05:11;101918.25;;;23.00;43.06
74045;BME280;62389;51.412;5.436;2023-06-05T12:07:37;101909.41;;;23.00;42.61
74045;BME280;62389;51.412;5.436;2023-06-05T12:10:06;101907.59;;;23.00;42.55
74045;BME280;62389;51.412;5.436;2023-06-05T12:12:33;101912.66;;;23.04;44.61
74045;BME280;62389;51.412;5.436;2023-06-05T12:15:15;101910.63;;;23.07;45.06
74045;BME280;62389;51.412;5.436;2023-06-05T12:17:40;101908.44;;;23.12;43.74
74045;BME280;62389;51.412;5.436;2023-06-05T12:20:06;101898.97;;;23.19;42.84
74045;BME280;62389;51.412;5.436;2023-06-05T12:22:35;101902.97;;;23.25;44.38
74045;BME280;62389;51.412;5.436;2023-06-05T12:27:41;101897.97;;;23.32;42.86
74045;BME280;62389;51.412;5.436;2023-06-05T12:30:07;101904.78;;;23.36;44.06
74045;BME280;62389;51.412;5.436;2023-06-05T12:32:34;101900.00;;;23.39;42.24
74045;BME280;62389;51.412;5.436;2023-06-05T12:35:00;101900.63;;;23.43;43.41
74045;BME280;62389;51.412;5.436;2023-06-05T12:37:26;101892.47;;;23.44;41.70
74045;BME280;62389;51.412;5.436;2023-06-05T12:40:00;101885.91;;;23.48;39.35
74045;BME280;62389;51.412;5.436;2023-06-05T12:42:25;101893.56;;;23.53;43.23
74045;BME280;62389;51.412;5.436;2023-06-05T12:44:51;101895.97;;;23.56;41.58
74045;BME280;62389;51.412;5.436;2023-06-05T12:47:16;101883.94;;;23.62;41.09
74045;BME280;62389;51.412;5.436;2023-06-05T12:49:41;101891.09;;;23.72;42.16
74045;BME280;62389;51.412;5.436;2023-06-05T12:52:07;101888.38;;;23.84;41.13
74045;BME280;62389;51.412;5.436;2023-06-05T12:54:36;101878.28;;;23.87;38.64
74045;BME280;62389;51.412;5.436;2023-06-05T12:57:02;101883.97;;;23.94;40.35
74045;BME280;62389;51.412;5.436;2023-06-05T12:59:27;101875.84;;;23.95;39.89
74045;BME280;62389;51.412;5.436;2023-06-05T13:01:53;101871.91;;;23.99;42.24
74045;BME280;62389;51.412;5.436;2023-06-05T13:04:18;101870.63;;;24.15;40.20
74045;BME280;62389;51.412;5.436;2023-06-05T13:06:44;101872.22;;;24.69;36.81
74045;BME280;62389;51.412;5.436;2023-06-05T13:09:09;101870.69;;;25.66;34.38
74045;BME280;62389;51.412;5.436;2023-06-05T13:11:35;101862.38;;;27.29;32.95